YSNF

Details ICAO YSNF (NLK)
Name Norfolk Island Intl
Region Australia
Timezone Pacific/Norfolk (UTC+11.0)
Plans Departing 24
Arriving 30
Stats Elevation 371 ft / 113 m (AMSL)
Location -29.042060° 167.938575°
Runways 2
Magnetic Variation 14.973° E
Sunrise 2017-12-10 17:44:01 UTC / 2017-12-11 04:44:01 Local
Sunset 2017-12-11 07:41:28 UTC / 2017-12-11 18:41:28 Local
Advertisement - Login to hide

Runways

ID Width Length Bearing (true) Bearing (mag) Surface Threshold Offset Overrun Length
04 98 ft / 30 m 5,115 ft / 1,559 m 49.90° 34.93° Asphalt 397 ft / 121 m 0 ft / 0 m
11 151 ft / 46 m 6,588 ft / 2,008 m 122.24° 107.27° Asphalt 197 ft / 60 m 0 ft / 0 m
22 98 ft / 30 m 5,115 ft / 1,559 m 229.90° 214.93° Asphalt 0 ft / 0 m 0 ft / 0 m
29 151 ft / 46 m 6,588 ft / 2,008 m 302.23° 287.26° Asphalt 197 ft / 60 m 0 ft / 0 m

Map

Weather


0- 5 10 15 20 25 30 35+ Temperature / ° C

Clouds and Precipitation
Forecast for 2017-12-11 12:00 UTC. Updated 16 minutes ago

Ground ~20,000 ft ~40,000 ft Winds

METAR

YSNF 110920Z AUTO 07019G29KT 9999 // SCT007 19/18 Q1012

TAF

TAF AMD YSNF 110851Z 1108/1206 04014KT 6000 BKN006 BECMG 1114/1116 08012KT 9999 -SHRA FEW015 SCT060 FM120000 10012KT 9999 SCT020 TEMPO 1108/1114 3000 RA BKN007

Frequencies

Unicom 118.10 MHz CTAF
Warning: Do not use this data for real-world aviation or navigation. No guarantee of current accuracy is given.